sensor_id;sensor_type;location;lat;lon;timestamp;P1;durP1;ratioP1;P2;durP2;ratioP2
45254;SDS011;30989;52.078;21.014;2023-09-19T00:00:00;9.77;;;5.80;;
45254;SDS011;30989;52.078;21.014;2023-09-19T00:02:26;10.10;;;6.07;;
45254;SDS011;30989;52.078;21.014;2023-09-19T00:04:52;10.07;;;5.57;;
45254;SDS011;30989;52.078;21.014;2023-09-19T00:07:18;12.10;;;6.43;;
45254;SDS011;30989;52.078;21.014;2023-09-19T00:09:44;11.57;;;6.40;;
45254;SDS011;30989;52.078;21.014;2023-09-19T00:12:09;18.88;;;8.77;;
45254;SDS011;30989;52.078;21.014;2023-09-19T00:14:35;10.80;;;6.38;;
45254;SDS011;30989;52.078;21.014;2023-09-19T00:17:01;14.23;;;7.28;;
45254;SDS011;30989;52.078;21.014;2023-09-19T00:19:33;9.70;;;6.35;;
45254;SDS011;30989;52.078;21.014;2023-09-19T00:22:02;11.85;;;6.93;;
45254;SDS011;30989;52.078;21.014;2023-09-19T00:24:29;11.60;;;6.43;;
45254;SDS011;30989;52.078;21.014;2023-09-19T00:26:54;10.65;;;6.47;;
45254;SDS011;30989;52.078;21.014;2023-09-19T00:29:21;8.75;;;5.50;;
45254;SDS011;30989;52.078;21.014;2023-09-19T00:31:49;10.60;;;5.90;;
45254;SDS011;30989;52.078;21.014;2023-09-19T00:34:15;13.48;;;7.05;;
45254;SDS011;30989;52.078;21.014;2023-09-19T00:36:41;13.20;;;5.93;;
45254;SDS011;30989;52.078;21.014;2023-09-19T00:39:08;11.25;;;6.10;;
45254;SDS011;30989;52.078;21.014;2023-09-19T00:41:34;11.02;;;6.32;;
45254;SDS011;30989;52.078;21.014;2023-09-19T00:44:03;11.13;;;6.13;;
45254;SDS011;30989;52.078;21.014;2023-09-19T00:46:32;14.95;;;6.47;;
45254;SDS011;30989;52.078;21.014;2023-09-19T00:49:01;11.48;;;6.78;;
45254;SDS011;30989;52.078;21.014;2023-09-19T00:51:28;11.20;;;6.28;;
45254;SDS011;30989;52.078;21.014;2023-09-19T00:53:54;11.45;;;5.80;;
45254;SDS011;30989;52.078;21.014;2023-09-19T00:56:20;14.43;;;6.70;;
45254;SDS011;30989;52.078;21.014;2023-09-19T00:58:46;11.00;;;6.20;;
45254;SDS011;30989;52.078;21.014;2023-09-19T01:01:15;12.77;;;6.82;;
45254;SDS011;30989;52.078;21.014;2023-09-19T01:03:42;10.38;;;6.05;;
45254;SDS011;30989;52.078;21.014;2023-09-19T01:06:08;10.57;;;6.43;;
45254;SDS011;30989;52.078;21.014;2023-09-19T01:08:34;12.07;;;6.28;;
45254;SDS011;30989;52.078;21.014;2023-09-19T01:14:20;16.55;;;7.57;;
45254;SDS011;30989;52.078;21.014;2023-09-19T01:17:00;11.40;;;6.28;;
45254;SDS011;30989;52.078;21.014;2023-09-19T01:30:51;10.77;;;6.35;;
45254;SDS011;30989;52.078;21.014;2023-09-19T01:33:26;12.68;;;7.30;;
45254;SDS011;30989;52.078;21.014;2023-09-19T01:35:52;17.70;;;9.23;;
45254;SDS011;30989;52.078;21.014;2023-09-19T01:38:20;11.25;;;6.18;;
45254;SDS011;30989;52.078;21.014;2023-09-19T01:40:53;13.55;;;7.00;;
45254;SDS011;30989;52.078;21.014;2023-09-19T01:43:33;11.38;;;6.53;;
45254;SDS011;30989;52.078;21.014;2023-09-19T01:48:40;15.73;;;6.93;;
45254;SDS011;30989;52.078;21.014;2023-09-19T01:51:13;12.52;;;7.40;;
45254;SDS011;30989;52.078;21.014;2023-09-19T01:58:52;11.05;;;6.70;;
45254;SDS011;30989;52.078;21.014;2023-09-19T02:01:22;12.32;;;7.00;;
45254;SDS011;30989;52.078;21.014;2023-09-19T02:03:50;11.25;;;6.82;;
45254;SDS011;30989;52.078;21.014;2023-09-19T02:06:16;11.43;;;6.68;;
45254;SDS011;30989;52.078;21.014;2023-09-19T02:08:44;10.43;;;5.90;;
45254;SDS011;30989;52.078;21.014;2023-09-19T02:11:13;12.15;;;6.38;;
45254;SDS011;30989;52.078;21.014;2023-09-19T02:13:39;13.23;;;6.85;;
45254;SDS011;30989;52.078;21.014;2023-09-19T02:16:06;10.93;;;6.82;;
45254;SDS011;30989;52.078;21.014;2023-09-19T02:18:32;13.63;;;7.07;;
45254;SDS011;30989;52.078;21.014;2023-09-19T02:21:02;13.32;;;6.88;;
45254;SDS011;30989;52.078;21.014;2023-09-19T02:23:29;13.43;;;6.50;;
45254;SDS011;30989;52.078;21.014;2023-09-19T02:25:55;10.60;;;6.28;;
45254;SDS011;30989;52.078;21.014;2023-09-19T02:28:26;12.70;;;6.07;;
45254;SDS011;30989;52.078;21.014;2023-09-19T02:30:58;12.27;;;6.40;;
45254;SDS011;30989;52.078;21.014;2023-09-19T02:33:24;11.05;;;5.97;;
45254;SDS011;30989;52.078;21.014;2023-09-19T02:35:55;11.85;;;6.68;;
45254;SDS011;30989;52.078;21.014;2023-09-19T02:38:26;12.20;;;6.85;;
45254;SDS011;30989;52.078;21.014;2023-09-19T02:40:52;13.18;;;7.75;;
45254;SDS011;30989;52.078;21.014;2023-09-19T02:43:20;12.43;;;7.38;;
45254;SDS011;30989;52.078;21.014;2023-09-19T02:45:49;14.25;;;6.75;;
45254;SDS011;30989;52.078;21.014;2023-09-19T02:48:15;14.00;;;6.10;;
45254;SDS011;30989;52.078;21.014;2023-09-19T02:50:42;13.90;;;6.93;;
45254;SDS011;30989;52.078;21.014;2023-09-19T02:53:08;11.73;;;6.10;;
45254;SDS011;30989;52.078;21.014;2023-09-19T02:55:35;11.68;;;6.60;;
45254;SDS011;30989;52.078;21.014;2023-09-19T02:58:00;11.68;;;6.82;;
45254;SDS011;30989;52.078;21.014;2023-09-19T03:00:26;11.75;;;6.63;;
45254;SDS011;30989;52.078;21.014;2023-09-19T03:02:53;12.45;;;7.80;;
45254;SDS011;30989;52.078;21.014;2023-09-19T03:05:20;14.95;;;7.65;;
45254;SDS011;30989;52.078;21.014;2023-09-19T03:07:47;13.27;;;6.70;;
45254;SDS011;30989;52.078;21.014;2023-09-19T03:10:16;10.63;;;6.47;;
45254;SDS011;30989;52.078;21.014;2023-09-19T03:12:43;15.05;;;7.78;;
45254;SDS011;30989;52.078;21.014;2023-09-19T03:15:09;11.27;;;7.22;;
45254;SDS011;30989;52.078;21.014;2023-09-19T03:17:35;14.25;;;7.47;;
45254;SDS011;30989;52.078;21.014;2023-09-19T03:20:02;13.52;;;6.85;;
45254;SDS011;30989;52.078;21.014;2023-09-19T03:22:33;23.27;;;8.82;;
45254;SDS011;30989;52.078;21.014;2023-09-19T03:24:59;12.38;;;6.65;;
45254;SDS011;30989;52.078;21.014;2023-09-19T03:27:26;18.00;;;7.57;;
45254;SDS011;30989;52.078;21.014;2023-09-19T03:29:52;13.32;;;6.93;;
45254;SDS011;30989;52.078;21.014;2023-09-19T03:32:18;12.15;;;7.28;;
45254;SDS011;30989;52.078;21.014;2023-09-19T03:34:45;14.85;;;7.22;;
45254;SDS011;30989;52.078;21.014;2023-09-19T03:37:14;11.45;;;7.32;;
45254;SDS011;30989;52.078;21.014;2023-09-19T03:39:40;15.02;;;7.78;;
45254;SDS011;30989;52.078;21.014;2023-09-19T03:42:06;14.07;;;8.10;;
45254;SDS011;30989;52.078;21.014;2023-09-19T03:44:33;12.52;;;7.32;;
45254;SDS011;30989;52.078;21.014;2023-09-19T03:46:59;13.43;;;6.70;;
45254;SDS011;30989;52.078;21.014;2023-09-19T03:49:24;12.68;;;6.57;;
45254;SDS011;30989;52.078;21.014;2023-09-19T03:51:50;14.60;;;7.10;;
45254;SDS011;30989;52.078;21.014;2023-09-19T03:54:15;24.55;;;11.32;;
45254;SDS011;30989;52.078;21.014;2023-09-19T03:56:42;12.75;;;6.50;;
45254;SDS011;30989;52.078;21.014;2023-09-19T03:59:08;13.38;;;6.60;;
45254;SDS011;30989;52.078;21.014;2023-09-19T04:01:34;11.70;;;7.15;;
45254;SDS011;30989;52.078;21.014;2023-09-19T04:04:00;12.25;;;6.97;;
45254;SDS011;30989;52.078;21.014;2023-09-19T04:06:34;11.65;;;7.15;;
45254;SDS011;30989;52.078;21.014;2023-09-19T04:09:00;12.85;;;7.25;;
45254;SDS011;30989;52.078;21.014;2023-09-19T04:11:27;13.05;;;6.88;;
45254;SDS011;30989;52.078;21.014;2023-09-19T04:13:52;11.10;;;6.80;;
45254;SDS011;30989;52.078;21.014;2023-09-19T04:16:18;11.93;;;7.47;;
45254;SDS011;30989;52.078;21.014;2023-09-19T04:18:44;13.18;;;7.60;;
45254;SDS011;30989;52.078;21.014;2023-09-19T04:21:10;12.88;;;6.93;;
45254;SDS011;30989;52.078;21.014;2023-09-19T04:23:35;20.85;;;8.45;;
45254;SDS011;30989;52.078;21.014;2023-09-19T04:26:02;12.57;;;7.05;;
45254;SDS011;30989;52.078;21.014;2023-09-19T04:28:30;13.60;;;6.88;;
45254;SDS011;30989;52.078;21.014;2023-09-19T04:30:56;20.42;;;7.38;;
45254;SDS011;30989;52.078;21.014;2023-09-19T04:33:22;11.90;;;7.00;;
45254;SDS011;30989;52.078;21.014;2023-09-19T04:35:51;15.50;;;7.63;;
45254;SDS011;30989;52.078;21.014;2023-09-19T04:38:17;12.90;;;6.45;;
45254;SDS011;30989;52.078;21.014;2023-09-19T04:40:44;16.38;;;8.90;;
45254;SDS011;30989;52.078;21.014;2023-09-19T04:43:09;14.05;;;7.75;;
45254;SDS011;30989;52.078;21.014;2023-09-19T04:45:35;15.85;;;7.65;;
45254;SDS011;30989;52.078;21.014;2023-09-19T04:48:00;11.95;;;7.03;;
45254;SDS011;30989;52.078;21.014;2023-09-19T04:50:25;12.02;;;6.82;;
45254;SDS011;30989;52.078;21.014;2023-09-19T04:52:53;12.38;;;7.93;;
45254;SDS011;30989;52.078;21.014;2023-09-19T04:55:19;17.00;;;8.35;;
45254;SDS011;30989;52.078;21.014;2023-09-19T04:57:48;22.58;;;13.57;;
45254;SDS011;30989;52.078;21.014;2023-09-19T05:00:19;13.70;;;8.07;;
45254;SDS011;30989;52.078;21.014;2023-09-19T05:02:48;14.38;;;7.85;;
45254;SDS011;30989;52.078;21.014;2023-09-19T05:05:17;14.25;;;7.57;;
45254;SDS011;30989;52.078;21.014;2023-09-19T05:07:44;12.98;;;7.55;;
45254;SDS011;30989;52.078;21.014;2023-09-19T05:10:11;12.93;;;6.75;;
45254;SDS011;30989;52.078;21.014;2023-09-19T05:12:37;15.10;;;8.57;;
45254;SDS011;30989;52.078;21.014;2023-09-19T05:15:03;14.23;;;7.63;;
45254;SDS011;30989;52.078;21.014;2023-09-19T05:17:30;14.02;;;7.28;;
45254;SDS011;30989;52.078;21.014;2023-09-19T05:19:56;12.18;;;6.90;;
45254;SDS011;30989;52.078;21.014;2023-09-19T05:22:23;13.75;;;7.65;;
45254;SDS011;30989;52.078;21.014;2023-09-19T05:24:50;11.82;;;6.00;;
45254;SDS011;30989;52.078;21.014;2023-09-19T05:27:16;13.25;;;6.65;;
45254;SDS011;30989;52.078;21.014;2023-09-19T05:29:45;13.18;;;7.00;;
45254;SDS011;30989;52.078;21.014;2023-09-19T05:32:10;16.08;;;8.95;;
45254;SDS011;30989;52.078;21.014;2023-09-19T05:34:36;12.82;;;7.07;;
45254;SDS011;30989;52.078;21.014;2023-09-19T05:37:02;16.02;;;8.02;;
45254;SDS011;30989;52.078;21.014;2023-09-19T05:39:28;13.05;;;7.28;;
45254;SDS011;30989;52.078;21.014;2023-09-19T05:41:53;15.95;;;8.70;;
45254;SDS011;30989;52.078;21.014;2023-09-19T05:44:18;11.73;;;6.68;;
45254;SDS011;30989;52.078;21.014;2023-09-19T05:46:44;18.60;;;6.65;;
45254;SDS011;30989;52.078;21.014;2023-09-19T05:49:11;13.85;;;7.85;;
45254;SDS011;30989;52.078;21.014;2023-09-19T05:51:36;19.63;;;10.75;;
45254;SDS011;30989;52.078;21.014;2023-09-19T05:54:02;20.25;;;11.60;;
45254;SDS011;30989;52.078;21.014;2023-09-19T05:56:28;13.32;;;7.40;;
45254;SDS011;30989;52.078;21.014;2023-09-19T05:58:54;11.82;;;6.93;;
45254;SDS011;30989;52.078;21.014;2023-09-19T06:01:19;11.52;;;6.68;;
45254;SDS011;30989;52.078;21.014;2023-09-19T06:03:44;11.07;;;6.85;;
45254;SDS011;30989;52.078;21.014;2023-09-19T06:06:10;12.18;;;6.70;;
45254;SDS011;30989;52.078;21.014;2023-09-19T06:08:35;18.02;;;9.98;;
45254;SDS011;30989;52.078;21.014;2023-09-19T06:11:01;14.63;;;7.43;;
45254;SDS011;30989;52.078;21.014;2023-09-19T06:13:29;14.13;;;7.22;;
45254;SDS011;30989;52.078;21.014;2023-09-19T06:15:55;13.95;;;6.13;;
45254;SDS011;30989;52.078;21.014;2023-09-19T06:18:25;10.07;;;7.13;;
45254;SDS011;30989;52.078;21.014;2023-09-19T06:20:51;10.68;;;5.95;;
45254;SDS011;30989;52.078;21.014;2023-09-19T06:23:17;12.52;;;6.65;;
45254;SDS011;30989;52.078;21.014;2023-09-19T06:25:43;9.65;;;5.95;;
45254;SDS011;30989;52.078;21.014;2023-09-19T06:28:09;14.57;;;6.03;;
45254;SDS011;30989;52.078;21.014;2023-09-19T06:30:37;13.52;;;5.90;;
45254;SDS011;30989;52.078;21.014;2023-09-19T06:33:06;12.27;;;5.80;;
45254;SDS011;30989;52.078;21.014;2023-09-19T06:35:32;11.57;;;5.93;;
45254;SDS011;30989;52.078;21.014;2023-09-19T06:37:59;13.23;;;6.70;;
45254;SDS011;30989;52.078;21.014;2023-09-19T06:40:28;13.13;;;6.35;;
45254;SDS011;30989;52.078;21.014;2023-09-19T06:42:53;12.20;;;6.55;;
45254;SDS011;30989;52.078;21.014;2023-09-19T06:45:19;12.98;;;6.82;;
45254;SDS011;30989;52.078;21.014;2023-09-19T06:47:47;10.07;;;6.00;;
45254;SDS011;30989;52.078;21.014;2023-09-19T06:50:20;9.40;;;5.50;;
45254;SDS011;30989;52.078;21.014;2023-09-19T06:52:50;15.95;;;6.63;;
45254;SDS011;30989;52.078;21.014;2023-09-19T06:55:20;13.68;;;6.65;;
45254;SDS011;30989;52.078;21.014;2023-09-19T06:57:48;11.85;;;5.60;;
45254;SDS011;30989;52.078;21.014;2023-09-19T07:00:14;10.30;;;6.00;;
45254;SDS011;30989;52.078;21.014;2023-09-19T07:05:36;12.57;;;6.63;;
45254;SDS011;30989;52.078;21.014;2023-09-19T07:08:04;12.73;;;5.30;;
45254;SDS011;30989;52.078;21.014;2023-09-19T07:10:33;16.88;;;6.47;;
45254;SDS011;30989;52.078;21.014;2023-09-19T07:12:59;11.70;;;6.78;;
45254;SDS011;30989;52.078;21.014;2023-09-19T07:15:28;12.55;;;6.57;;
45254;SDS011;30989;52.078;21.014;2023-09-19T07:18:04;14.43;;;6.55;;
45254;SDS011;30989;52.078;21.014;2023-09-19T07:20:30;10.30;;;6.60;;
45254;SDS011;30989;52.078;21.014;2023-09-19T07:22:57;12.38;;;7.00;;
45254;SDS011;30989;52.078;21.014;2023-09-19T07:25:26;14.38;;;6.70;;
45254;SDS011;30989;52.078;21.014;2023-09-19T07:27:52;10.80;;;6.18;;
45254;SDS011;30989;52.078;21.014;2023-09-19T07:30:17;12.95;;;6.25;;
45254;SDS011;30989;52.078;21.014;2023-09-19T07:32:43;12.80;;;6.47;;
45254;SDS011;30989;52.078;21.014;2023-09-19T07:35:08;19.25;;;6.82;;
45254;SDS011;30989;52.078;21.014;2023-09-19T07:37:34;11.10;;;6.70;;
45254;SDS011;30989;52.078;21.014;2023-09-19T07:39:59;12.50;;;6.53;;
45254;SDS011;30989;52.078;21.014;2023-09-19T07:42:26;12.57;;;6.60;;
45254;SDS011;30989;52.078;21.014;2023-09-19T07:44:52;15.43;;;6.95;;
45254;SDS011;30989;52.078;21.014;2023-09-19T07:47:19;10.25;;;5.70;;
45254;SDS011;30989;52.078;21.014;2023-09-19T07:49:46;10.35;;;6.13;;
45254;SDS011;30989;52.078;21.014;2023-09-19T07:52:12;14.73;;;7.00;;
45254;SDS011;30989;52.078;21.014;2023-09-19T07:54:38;13.77;;;7.13;;
45254;SDS011;30989;52.078;21.014;2023-09-19T07:57:06;9.30;;;5.85;;
45254;SDS011;30989;52.078;21.014;2023-09-19T07:59:32;9.65;;;6.68;;
45254;SDS011;30989;52.078;21.014;2023-09-19T08:01:58;11.82;;;5.97;;
45254;SDS011;30989;52.078;21.014;2023-09-19T08:04:23;13.13;;;7.00;;
45254;SDS011;30989;52.078;21.014;2023-09-19T08:06:51;11.48;;;6.65;;
45254;SDS011;30989;52.078;21.014;2023-09-19T08:09:17;15.90;;;7.68;;
45254;SDS011;30989;52.078;21.014;2023-09-19T08:11:46;12.05;;;6.90;;
45254;SDS011;30989;52.078;21.014;2023-09-19T08:14:12;12.95;;;6.32;;
45254;SDS011;30989;52.078;21.014;2023-09-19T08:16:39;16.35;;;7.45;;
45254;SDS011;30989;52.078;21.014;2023-09-19T08:19:05;11.82;;;7.10;;
45254;SDS011;30989;52.078;21.014;2023-09-19T08:21:31;10.82;;;6.60;;
45254;SDS011;30989;52.078;21.014;2023-09-19T08:23:57;15.35;;;8.13;;
45254;SDS011;30989;52.078;21.014;2023-09-19T08:26:22;14.07;;;7.95;;
45254;SDS011;30989;52.078;21.014;2023-09-19T08:28:49;19.52;;;7.57;;
45254;SDS011;30989;52.078;21.014;2023-09-19T08:31:16;13.60;;;7.15;;
45254;SDS011;30989;52.078;21.014;2023-09-19T08:33:42;14.00;;;7.80;;
45254;SDS011;30989;52.078;21.014;2023-09-19T08:36:12;17.30;;;7.15;;
45254;SDS011;30989;52.078;21.014;2023-09-19T08:38:39;20.58;;;7.13;;
45254;SDS011;30989;52.078;21.014;2023-09-19T08:41:05;11.75;;;7.50;;
45254;SDS011;30989;52.078;21.014;2023-09-19T08:43:35;17.60;;;8.70;;
45254;SDS011;30989;52.078;21.014;2023-09-19T08:46:11;12.05;;;7.30;;
45254;SDS011;30989;52.078;21.014;2023-09-19T08:48:53;13.63;;;7.03;;
45254;SDS011;30989;52.078;21.014;2023-09-19T08:51:27;12.88;;;7.35;;
45254;SDS011;30989;52.078;21.014;2023-09-19T08:56:24;15.73;;;7.47;;
45254;SDS011;30989;52.078;21.014;2023-09-19T08:59:04;14.43;;;7.75;;
45254;SDS011;30989;52.078;21.014;2023-09-19T09:01:32;17.15;;;8.00;;
45254;SDS011;30989;52.078;21.014;2023-09-19T09:03:58;28.67;;;9.07;;
45254;SDS011;30989;52.078;21.014;2023-09-19T09:06:26;15.43;;;7.72;;
45254;SDS011;30989;52.078;21.014;2023-09-19T09:08:53;17.20;;;7.88;;
45254;SDS011;30989;52.078;21.014;2023-09-19T09:11:19;18.35;;;8.20;;
45254;SDS011;30989;52.078;21.014;2023-09-19T09:13:46;14.38;;;8.75;;
45254;SDS011;30989;52.078;21.014;2023-09-19T09:16:13;17.15;;;6.97;;
45254;SDS011;30989;52.078;21.014;2023-09-19T09:18:43;12.60;;;7.17;;
45254;SDS011;30989;52.078;21.014;2023-09-19T09:21:09;11.60;;;6.90;;
45254;SDS011;30989;52.078;21.014;2023-09-19T09:23:35;14.88;;;6.47;;
45254;SDS011;30989;52.078;21.014;2023-09-19T09:26:00;13.27;;;8.18;;
45254;SDS011;30989;52.078;21.014;2023-09-19T09:28:28;18.75;;;7.45;;
45254;SDS011;30989;52.078;21.014;2023-09-19T09:30:55;14.65;;;6.72;;
45254;SDS011;30989;52.078;21.014;2023-09-19T09:33:23;14.07;;;7.55;;
45254;SDS011;30989;52.078;21.014;2023-09-19T09:35:56;15.13;;;6.88;;
45254;SDS011;30989;52.078;21.014;2023-09-19T09:38:45;10.65;;;6.32;;
45254;SDS011;30989;52.078;21.014;2023-09-19T09:41:13;12.50;;;5.75;;
45254;SDS011;30989;52.078;21.014;2023-09-19T09:43:52;15.27;;;5.55;;
45254;SDS011;30989;52.078;21.014;2023-09-19T09:46:18;11.30;;;6.40;;
45254;SDS011;30989;52.078;21.014;2023-09-19T09:48:56;11.15;;;5.85;;
45254;SDS011;30989;52.078;21.014;2023-09-19T09:51:45;9.00;;;5.85;;
45254;SDS011;30989;52.078;21.014;2023-09-19T09:54:24;11.50;;;6.90;;
45254;SDS011;30989;52.078;21.014;2023-09-19T09:56:57;12.55;;;7.30;;
45254;SDS011;30989;52.078;21.014;2023-09-19T10:02:16;19.58;;;7.53;;
45254;SDS011;30989;52.078;21.014;2023-09-19T10:04:53;12.30;;;6.22;;
45254;SDS011;30989;52.078;21.014;2023-09-19T10:07:49;15.05;;;6.50;;
45254;SDS011;30989;52.078;21.014;2023-09-19T10:10:32;13.10;;;6.68;;
45254;SDS011;30989;52.078;21.014;2023-09-19T10:13:25;12.65;;;7.22;;
45254;SDS011;30989;52.078;21.014;2023-09-19T10:15:54;13.85;;;7.15;;
45254;SDS011;30989;52.078;21.014;2023-09-19T10:18:22;12.52;;;7.40;;
45254;SDS011;30989;52.078;21.014;2023-09-19T10:20:49;13.77;;;7.03;;
45254;SDS011;30989;52.078;21.014;2023-09-19T10:23:16;16.13;;;7.80;;
45254;SDS011;30989;52.078;21.014;2023-09-19T10:25:52;13.82;;;7.65;;
45254;SDS011;30989;52.078;21.014;2023-09-19T10:28:19;10.13;;;6.53;;
45254;SDS011;30989;52.078;21.014;2023-09-19T10:30:48;17.90;;;7.85;;
45254;SDS011;30989;52.078;21.014;2023-09-19T10:33:16;13.35;;;7.20;;
45254;SDS011;30989;52.078;21.014;2023-09-19T10:35:44;19.88;;;7.47;;
45254;SDS011;30989;52.078;21.014;2023-09-19T10:38:12;13.65;;;6.53;;
45254;SDS011;30989;52.078;21.014;2023-09-19T10:40:39;12.90;;;7.22;;
45254;SDS011;30989;52.078;21.014;2023-09-19T10:43:11;10.98;;;5.47;;
45254;SDS011;30989;52.078;21.014;2023-09-19T10:45:37;10.40;;;6.05;;
45254;SDS011;30989;52.078;21.014;2023-09-19T10:48:05;14.07;;;6.40;;
45254;SDS011;30989;52.078;21.014;2023-09-19T10:50:51;8.40;;;5.57;;
45254;SDS011;30989;52.078;21.014;2023-09-19T10:53:24;8.93;;;4.90;;
45254;SDS011;30989;52.078;21.014;2023-09-19T10:55:53;9.98;;;5.57;;
45254;SDS011;30989;52.078;21.014;2023-09-19T10:58:31;12.25;;;5.63;;
45254;SDS011;30989;52.078;21.014;2023-09-19T11:01:00;7.57;;;4.35;;
45254;SDS011;30989;52.078;21.014;2023-09-19T11:03:30;10.02;;;4.28;;
45254;SDS011;30989;52.078;21.014;2023-09-19T11:06:03;8.60;;;4.78;;
45254;SDS011;30989;52.078;21.014;2023-09-19T11:14:13;9.55;;;5.45;;
45254;SDS011;30989;52.078;21.014;2023-09-19T11:30:38;7.28;;;4.47;;
45254;SDS011;30989;52.078;21.014;2023-09-19T11:33:20;9.80;;;4.50;;
45254;SDS011;30989;52.078;21.014;2023-09-19T11:36:08;6.03;;;3.60;;
45254;SDS011;30989;52.078;21.014;2023-09-19T11:43:47;6.95;;;3.42;;
45254;SDS011;30989;52.078;21.014;2023-09-19T11:46:13;5.88;;;3.70;;
45254;SDS011;30989;52.078;21.014;2023-09-19T11:48:42;7.93;;;3.65;;
45254;SDS011;30989;52.078;21.014;2023-09-19T11:51:10;6.30;;;3.03;;
45254;SDS011;30989;52.078;21.014;2023-09-19T11:53:44;5.97;;;2.92;;
45254;SDS011;30989;52.078;21.014;2023-09-19T11:56:13;6.40;;;3.33;;
45254;SDS011;30989;52.078;21.014;2023-09-19T11:58:40;5.30;;;2.28;;
45254;SDS011;30989;52.078;21.014;2023-09-19T12:01:07;4.85;;;2.67;;
45254;SDS011;30989;52.078;21.014;2023-09-19T12:03:38;5.07;;;2.38;;
45254;SDS011;30989;52.078;21.014;2023-09-19T12:06:13;5.55;;;2.40;;
45254;SDS011;30989;52.078;21.014;2023-09-19T12:08:43;4.68;;;2.40;;
45254;SDS011;30989;52.078;21.014;2023-09-19T12:11:14;5.65;;;2.88;;
45254;SDS011;30989;52.078;21.014;2023-09-19T12:13:44;7.35;;;2.22;;
45254;SDS011;30989;52.078;21.014;2023-09-19T12:16:12;8.13;;;2.35;;
45254;SDS011;30989;52.078;21.014;2023-09-19T12:18:42;7.45;;;2.20;;
45254;SDS011;30989;52.078;21.014;2023-09-19T12:21:21;3.40;;;2.03;;
45254;SDS011;30989;52.078;21.014;2023-09-19T12:26:41;5.63;;;2.45;;
45254;SDS011;30989;52.078;21.014;2023-09-19T12:29:15;9.63;;;2.63;;
45254;SDS011;30989;52.078;21.014;2023-09-19T12:31:49;8.43;;;2.35;;
45254;SDS011;30989;52.078;21.014;2023-09-19T12:34:18;6.13;;;2.15;;
45254;SDS011;30989;52.078;21.014;2023-09-19T12:36:45;5.65;;;2.88;;
45254;SDS011;30989;52.078;21.014;2023-09-19T12:39:11;7.00;;;2.47;;
45254;SDS011;30989;52.078;21.014;2023-09-19T12:41:37;6.30;;;2.72;;
45254;SDS011;30989;52.078;21.014;2023-09-19T12:44:03;7.38;;;2.72;;
45254;SDS011;30989;52.078;21.014;2023-09-19T12:46:34;5.57;;;2.97;;
45254;SDS011;30989;52.078;21.014;2023-09-19T12:49:16;4.82;;;2.65;;
45254;SDS011;30989;52.078;21.014;2023-09-19T12:51:44;10.50;;;3.72;;
45254;SDS011;30989;52.078;21.014;2023-09-19T12:54:10;8.48;;;2.78;;
45254;SDS011;30989;52.078;21.014;2023-09-19T12:56:39;5.38;;;3.10;;
45254;SDS011;30989;52.078;21.014;2023-09-19T12:59:14;10.63;;;3.00;;
45254;SDS011;30989;52.078;21.014;2023-09-19T13:01:40;6.68;;;3.13;;
45254;SDS011;30989;52.078;21.014;2023-09-19T13:04:19;6.88;;;3.17;;
45254;SDS011;30989;52.078;21.014;2023-09-19T13:06:51;10.48;;;4.03;;
45254;SDS011;30989;52.078;21.014;2023-09-19T13:09:18;9.80;;;4.55;;
45254;SDS011;30989;52.078;21.014;2023-09-19T13:11:50;5.28;;;2.85;;
45254;SDS011;30989;52.078;21.014;2023-09-19T13:16:53;7.32;;;3.72;;
45254;SDS011;30989;52.078;21.014;2023-09-19T13:19:45;7.50;;;2.90;;
45254;SDS011;30989;52.078;21.014;2023-09-19T13:25:19;5.95;;;3.22;;
45254;SDS011;30989;52.078;21.014;2023-09-19T13:27:46;10.20;;;3.10;;
45254;SDS011;30989;52.078;21.014;2023-09-19T13:30:20;9.98;;;3.55;;
45254;SDS011;30989;52.078;21.014;2023-09-19T13:32:46;8.38;;;4.15;;
45254;SDS011;30989;52.078;21.014;2023-09-19T13:35:13;6.85;;;3.00;;
45254;SDS011;30989;52.078;21.014;2023-09-19T13:37:42;7.10;;;3.92;;
45254;SDS011;30989;52.078;21.014;2023-09-19T13:42:34;7.90;;;3.80;;
45254;SDS011;30989;52.078;21.014;2023-09-19T13:45:01;7.22;;;3.97;;
45254;SDS011;30989;52.078;21.014;2023-09-19T13:47:28;10.18;;;4.13;;
45254;SDS011;30989;52.078;21.014;2023-09-19T13:49:54;8.15;;;3.88;;
45254;SDS011;30989;52.078;21.014;2023-09-19T13:52:20;7.55;;;3.80;;
45254;SDS011;30989;52.078;21.014;2023-09-19T13:54:46;7.22;;;3.83;;
45254;SDS011;30989;52.078;21.014;2023-09-19T13:57:12;7.22;;;3.45;;
45254;SDS011;30989;52.078;21.014;2023-09-19T13:59:38;9.48;;;3.55;;
45254;SDS011;30989;52.078;21.014;2023-09-19T14:02:03;8.02;;;4.55;;
45254;SDS011;30989;52.078;21.014;2023-09-19T14:04:31;9.73;;;3.95;;
45254;SDS011;30989;52.078;21.014;2023-09-19T14:06:56;9.93;;;4.57;;
45254;SDS011;30989;52.078;21.014;2023-09-19T14:09:23;7.05;;;3.97;;
45254;SDS011;30989;52.078;21.014;2023-09-19T14:11:49;12.30;;;5.53;;
45254;SDS011;30989;52.078;21.014;2023-09-19T14:14:20;9.20;;;4.37;;
45254;SDS011;30989;52.078;21.014;2023-09-19T14:16:46;9.05;;;4.35;;
45254;SDS011;30989;52.078;21.014;2023-09-19T14:19:12;7.65;;;4.78;;
45254;SDS011;30989;52.078;21.014;2023-09-19T14:21:40;5.80;;;4.00;;
45254;SDS011;30989;52.078;21.014;2023-09-19T14:24:05;9.95;;;5.45;;
45254;SDS011;30989;52.078;21.014;2023-09-19T14:26:41;8.35;;;4.57;;
45254;SDS011;30989;52.078;21.014;2023-09-19T14:29:06;6.03;;;3.88;;
45254;SDS011;30989;52.078;21.014;2023-09-19T14:31:32;11.43;;;4.53;;
45254;SDS011;30989;52.078;21.014;2023-09-19T14:33:58;7.38;;;3.25;;
45254;SDS011;30989;52.078;21.014;2023-09-19T14:36:24;7.75;;;3.78;;
45254;SDS011;30989;52.078;21.014;2023-09-19T14:38:54;5.22;;;2.75;;
45254;SDS011;30989;52.078;21.014;2023-09-19T14:41:20;6.55;;;3.35;;
45254;SDS011;30989;52.078;21.014;2023-09-19T14:43:46;7.78;;;4.45;;
45254;SDS011;30989;52.078;21.014;2023-09-19T14:46:11;8.10;;;3.45;;
45254;SDS011;30989;52.078;21.014;2023-09-19T14:48:37;4.85;;;3.10;;
45254;SDS011;30989;52.078;21.014;2023-09-19T14:51:03;9.70;;;4.10;;
45254;SDS011;30989;52.078;21.014;2023-09-19T14:53:29;7.40;;;3.05;;
45254;SDS011;30989;52.078;21.014;2023-09-19T14:55:55;6.20;;;3.45;;
45254;SDS011;30989;52.078;21.014;2023-09-19T14:58:21;10.68;;;4.15;;
45254;SDS011;30989;52.078;21.014;2023-09-19T15:00:47;8.05;;;4.60;;
45254;SDS011;30989;52.078;21.014;2023-09-19T15:03:12;8.23;;;3.97;;
45254;SDS011;30989;52.078;21.014;2023-09-19T15:05:41;7.97;;;3.35;;
45254;SDS011;30989;52.078;21.014;2023-09-19T15:08:06;6.90;;;4.03;;
45254;SDS011;30989;52.078;21.014;2023-09-19T15:10:31;5.68;;;3.50;;
45254;SDS011;30989;52.078;21.014;2023-09-19T15:12:57;9.38;;;3.20;;
45254;SDS011;30989;52.078;21.014;2023-09-19T15:15:22;5.72;;;3.10;;
45254;SDS011;30989;52.078;21.014;2023-09-19T15:17:48;7.03;;;3.90;;
45254;SDS011;30989;52.078;21.014;2023-09-19T15:20:13;7.10;;;3.63;;
45254;SDS011;30989;52.078;21.014;2023-09-19T15:22:39;5.65;;;3.10;;
45254;SDS011;30989;52.078;21.014;2023-09-19T15:25:05;8.43;;;4.03;;
45254;SDS011;30989;52.078;21.014;2023-09-19T15:27:31;5.32;;;3.08;;
45254;SDS011;30989;52.078;21.014;2023-09-19T15:29:57;8.52;;;3.28;;
45254;SDS011;30989;52.078;21.014;2023-09-19T15:32:24;8.70;;;3.00;;
45254;SDS011;30989;52.078;21.014;2023-09-19T15:34:50;7.00;;;3.17;;
45254;SDS011;30989;52.078;21.014;2023-09-19T15:37:15;6.00;;;2.65;;